sensor_id;sensor_type;location;lat;lon;timestamp;P1;durP1;ratioP1;P2;durP2;ratioP2
47760;SDS011;33524;55.434;38.520;2022-09-13T00:01:13;7.90;;;5.18;;
47760;SDS011;33524;55.434;38.520;2022-09-13T00:03:41;4.82;;;3.83;;
47760;SDS011;33524;55.434;38.520;2022-09-13T00:06:10;6.70;;;5.05;;
47760;SDS011;33524;55.434;38.520;2022-09-13T00:08:40;7.78;;;5.03;;
47760;SDS011;33524;55.434;38.520;2022-09-13T00:11:22;7.30;;;5.15;;
47760;SDS011;33524;55.434;38.520;2022-09-13T00:13:52;7.65;;;5.82;;
47760;SDS011;33524;55.434;38.520;2022-09-13T00:16:22;5.85;;;4.40;;
47760;SDS011;33524;55.434;38.520;2022-09-13T00:18:52;6.90;;;4.97;;
47760;SDS011;33524;55.434;38.520;2022-09-13T00:21:22;8.10;;;5.05;;
47760;SDS011;33524;55.434;38.520;2022-09-13T00:23:51;5.07;;;4.40;;
47760;SDS011;33524;55.434;38.520;2022-09-13T00:26:25;6.25;;;4.85;;
47760;SDS011;33524;55.434;38.520;2022-09-13T00:28:55;8.98;;;4.80;;
47760;SDS011;33524;55.434;38.520;2022-09-13T00:31:25;6.18;;;5.03;;
47760;SDS011;33524;55.434;38.520;2022-09-13T00:33:54;7.85;;;4.55;;
47760;SDS011;33524;55.434;38.520;2022-09-13T00:36:24;7.10;;;5.20;;
47760;SDS011;33524;55.434;38.520;2022-09-13T00:38:52;6.97;;;4.90;;
47760;SDS011;33524;55.434;38.520;2022-09-13T00:41:20;7.85;;;5.25;;
47760;SDS011;33524;55.434;38.520;2022-09-13T00:43:49;6.95;;;5.35;;
47760;SDS011;33524;55.434;38.520;2022-09-13T00:51:46;6.47;;;4.55;;
47760;SDS011;33524;55.434;38.520;2022-09-13T00:54:18;6.75;;;4.93;;
47760;SDS011;33524;55.434;38.520;2022-09-13T00:56:52;7.47;;;4.78;;
47760;SDS011;33524;55.434;38.520;2022-09-13T00:59:31;7.57;;;6.18;;
47760;SDS011;33524;55.434;38.520;2022-09-13T01:02:21;6.28;;;5.40;;
47760;SDS011;33524;55.434;38.520;2022-09-13T01:04:49;7.25;;;4.95;;
47760;SDS011;33524;55.434;38.520;2022-09-13T01:07:17;9.95;;;5.93;;
47760;SDS011;33524;55.434;38.520;2022-09-13T01:09:46;7.22;;;5.60;;
47760;SDS011;33524;55.434;38.520;2022-09-13T01:15:26;8.85;;;6.05;;
47760;SDS011;33524;55.434;38.520;2022-09-13T01:17:54;7.78;;;6.05;;
47760;SDS011;33524;55.434;38.520;2022-09-13T01:20:26;7.45;;;5.62;;
47760;SDS011;33524;55.434;38.520;2022-09-13T01:23:24;9.10;;;6.97;;
47760;SDS011;33524;55.434;38.520;2022-09-13T01:32:18;8.30;;;6.35;;
47760;SDS011;33524;55.434;38.520;2022-09-13T01:35:19;8.55;;;6.05;;
47760;SDS011;33524;55.434;38.520;2022-09-13T01:41:19;9.82;;;6.22;;
47760;SDS011;33524;55.434;38.520;2022-09-13T01:47:13;9.48;;;7.03;;
47760;SDS011;33524;55.434;38.520;2022-09-13T01:53:08;11.57;;;6.97;;
47760;SDS011;33524;55.434;38.520;2022-09-13T02:01:23;11.35;;;7.85;;
47760;SDS011;33524;55.434;38.520;2022-09-13T02:04:12;12.20;;;7.12;;
47760;SDS011;33524;55.434;38.520;2022-09-13T02:06:52;11.07;;;7.45;;
47760;SDS011;33524;55.434;38.520;2022-09-13T02:09:33;8.95;;;6.78;;
47760;SDS011;33524;55.434;38.520;2022-09-13T02:12:15;11.30;;;7.78;;
47760;SDS011;33524;55.434;38.520;2022-09-13T02:14:53;9.63;;;7.60;;
47760;SDS011;33524;55.434;38.520;2022-09-13T02:17:31;11.02;;;7.68;;
47760;SDS011;33524;55.434;38.520;2022-09-13T02:20:19;9.13;;;6.80;;
47760;SDS011;33524;55.434;38.520;2022-09-13T02:22:53;8.52;;;7.07;;
47760;SDS011;33524;55.434;38.520;2022-09-13T02:25:25;8.48;;;6.30;;
47760;SDS011;33524;55.434;38.520;2022-09-13T02:27:58;8.23;;;6.80;;
47760;SDS011;33524;55.434;38.520;2022-09-13T02:33:00;11.27;;;6.15;;
47760;SDS011;33524;55.434;38.520;2022-09-13T02:35:43;9.60;;;6.47;;
47760;SDS011;33524;55.434;38.520;2022-09-13T02:38:45;11.60;;;7.28;;
47760;SDS011;33524;55.434;38.520;2022-09-13T02:41:24;13.75;;;6.75;;
47760;SDS011;33524;55.434;38.520;2022-09-13T02:44:14;11.10;;;7.47;;
47760;SDS011;33524;55.434;38.520;2022-09-13T02:52:50;10.40;;;6.68;;
47760;SDS011;33524;55.434;38.520;2022-09-13T03:01:18;8.35;;;7.03;;
47760;SDS011;33524;55.434;38.520;2022-09-13T03:03:48;10.93;;;6.60;;
47760;SDS011;33524;55.434;38.520;2022-09-13T03:06:22;9.85;;;7.30;;
47760;SDS011;33524;55.434;38.520;2022-09-13T03:08:51;7.60;;;5.53;;
47760;SDS011;33524;55.434;38.520;2022-09-13T03:11:28;9.80;;;6.22;;
47760;SDS011;33524;55.434;38.520;2022-09-13T03:28:51;9.68;;;5.93;;
47760;SDS011;33524;55.434;38.520;2022-09-13T03:31:30;10.55;;;6.78;;
47760;SDS011;33524;55.434;38.520;2022-09-13T03:34:24;12.13;;;7.15;;
47760;SDS011;33524;55.434;38.520;2022-09-13T03:37:22;8.65;;;6.37;;
47760;SDS011;33524;55.434;38.520;2022-09-13T03:39:58;8.15;;;5.65;;
47760;SDS011;33524;55.434;38.520;2022-09-13T03:42:49;8.70;;;7.12;;
47760;SDS011;33524;55.434;38.520;2022-09-13T03:45:24;10.63;;;7.30;;
47760;SDS011;33524;55.434;38.520;2022-09-13T03:47:56;8.55;;;5.87;;
47760;SDS011;33524;55.434;38.520;2022-09-13T03:50:25;8.98;;;7.22;;
47760;SDS011;33524;55.434;38.520;2022-09-13T03:52:58;10.48;;;6.78;;
47760;SDS011;33524;55.434;38.520;2022-09-13T03:55:30;8.43;;;5.20;;
47760;SDS011;33524;55.434;38.520;2022-09-13T03:58:01;8.15;;;5.20;;
47760;SDS011;33524;55.434;38.520;2022-09-13T04:00:29;9.63;;;6.12;;
47760;SDS011;33524;55.434;38.520;2022-09-13T04:02:57;7.70;;;5.10;;
47760;SDS011;33524;55.434;38.520;2022-09-13T04:05:25;7.15;;;5.15;;
47760;SDS011;33524;55.434;38.520;2022-09-13T04:07:53;7.25;;;5.35;;
47760;SDS011;33524;55.434;38.520;2022-09-13T04:10:21;9.27;;;5.75;;
47760;SDS011;33524;55.434;38.520;2022-09-13T04:12:50;8.75;;;5.75;;
47760;SDS011;33524;55.434;38.520;2022-09-13T04:15:20;10.00;;;6.60;;
47760;SDS011;33524;55.434;38.520;2022-09-13T04:17:48;9.93;;;6.32;;
47760;SDS011;33524;55.434;38.520;2022-09-13T04:20:18;8.25;;;6.62;;
47760;SDS011;33524;55.434;38.520;2022-09-13T04:22:50;9.43;;;6.20;;
47760;SDS011;33524;55.434;38.520;2022-09-13T04:25:22;10.82;;;6.85;;
47760;SDS011;33524;55.434;38.520;2022-09-13T04:27:54;10.35;;;6.68;;
47760;SDS011;33524;55.434;38.520;2022-09-13T04:30:22;12.65;;;7.75;;
47760;SDS011;33524;55.434;38.520;2022-09-13T04:32:50;12.65;;;7.28;;
47760;SDS011;33524;55.434;38.520;2022-09-13T04:35:18;9.82;;;7.03;;
47760;SDS011;33524;55.434;38.520;2022-09-13T04:37:46;9.88;;;5.78;;
47760;SDS011;33524;55.434;38.520;2022-09-13T04:40:14;10.70;;;6.68;;
47760;SDS011;33524;55.434;38.520;2022-09-13T04:42:45;8.80;;;6.35;;
47760;SDS011;33524;55.434;38.520;2022-09-13T04:45:13;10.13;;;6.53;;
47760;SDS011;33524;55.434;38.520;2022-09-13T04:47:41;8.75;;;6.37;;
47760;SDS011;33524;55.434;38.520;2022-09-13T04:50:09;8.52;;;6.57;;
47760;SDS011;33524;55.434;38.520;2022-09-13T04:52:37;12.43;;;6.15;;
47760;SDS011;33524;55.434;38.520;2022-09-13T04:55:05;9.43;;;7.05;;
47760;SDS011;33524;55.434;38.520;2022-09-13T04:57:33;9.63;;;6.72;;
47760;SDS011;33524;55.434;38.520;2022-09-13T05:00:02;9.98;;;6.18;;
47760;SDS011;33524;55.434;38.520;2022-09-13T05:02:30;11.10;;;6.50;;
47760;SDS011;33524;55.434;38.520;2022-09-13T05:04:58;7.43;;;4.60;;
47760;SDS011;33524;55.434;38.520;2022-09-13T05:07:26;10.95;;;7.82;;
47760;SDS011;33524;55.434;38.520;2022-09-13T05:09:54;6.20;;;5.43;;
47760;SDS011;33524;55.434;38.520;2022-09-13T05:12:22;9.50;;;6.00;;
47760;SDS011;33524;55.434;38.520;2022-09-13T05:14:50;10.07;;;6.80;;
47760;SDS011;33524;55.434;38.520;2022-09-13T05:17:18;5.72;;;4.18;;
47760;SDS011;33524;55.434;38.520;2022-09-13T05:19:46;9.38;;;7.05;;
47760;SDS011;33524;55.434;38.520;2022-09-13T05:22:15;9.65;;;6.62;;
47760;SDS011;33524;55.434;38.520;2022-09-13T05:24:43;8.93;;;6.32;;
47760;SDS011;33524;55.434;38.520;2022-09-13T05:27:14;8.73;;;6.60;;
47760;SDS011;33524;55.434;38.520;2022-09-13T05:29:42;5.93;;;4.10;;
47760;SDS011;33524;55.434;38.520;2022-09-13T05:32:10;9.15;;;5.57;;
47760;SDS011;33524;55.434;38.520;2022-09-13T05:34:38;11.25;;;7.20;;
47760;SDS011;33524;55.434;38.520;2022-09-13T05:37:06;11.48;;;7.25;;
47760;SDS011;33524;55.434;38.520;2022-09-13T05:39:34;9.10;;;6.05;;
47760;SDS011;33524;55.434;38.520;2022-09-13T05:42:23;10.07;;;7.18;;
47760;SDS011;33524;55.434;38.520;2022-09-13T05:44:50;9.52;;;7.12;;
47760;SDS011;33524;55.434;38.520;2022-09-13T05:47:18;10.98;;;7.75;;
47760;SDS011;33524;55.434;38.520;2022-09-13T05:49:46;9.60;;;6.80;;
47760;SDS011;33524;55.434;38.520;2022-09-13T05:52:34;9.88;;;7.30;;
47760;SDS011;33524;55.434;38.520;2022-09-13T05:55:02;9.43;;;5.47;;
47760;SDS011;33524;55.434;38.520;2022-09-13T05:57:33;7.18;;;5.35;;
47760;SDS011;33524;55.434;38.520;2022-09-13T06:00:02;8.73;;;6.20;;
47760;SDS011;33524;55.434;38.520;2022-09-13T06:02:38;11.27;;;7.28;;
47760;SDS011;33524;55.434;38.520;2022-09-13T06:05:07;10.13;;;6.62;;
47760;SDS011;33524;55.434;38.520;2022-09-13T06:07:39;9.52;;;6.30;;
47760;SDS011;33524;55.434;38.520;2022-09-13T06:10:09;10.98;;;6.28;;
47760;SDS011;33524;55.434;38.520;2022-09-13T06:12:37;8.65;;;5.68;;
47760;SDS011;33524;55.434;38.520;2022-09-13T06:15:05;7.05;;;5.20;;
47760;SDS011;33524;55.434;38.520;2022-09-13T06:17:34;6.85;;;4.70;;
47760;SDS011;33524;55.434;38.520;2022-09-13T06:20:02;7.70;;;4.97;;
47760;SDS011;33524;55.434;38.520;2022-09-13T06:22:48;10.52;;;5.68;;
47760;SDS011;33524;55.434;38.520;2022-09-13T06:25:16;5.40;;;3.67;;
47760;SDS011;33524;55.434;38.520;2022-09-13T06:27:44;8.05;;;5.45;;
47760;SDS011;33524;55.434;38.520;2022-09-13T06:30:12;7.10;;;4.12;;
47760;SDS011;33524;55.434;38.520;2022-09-13T06:32:41;6.78;;;4.18;;
47760;SDS011;33524;55.434;38.520;2022-09-13T06:35:09;7.47;;;4.90;;
47760;SDS011;33524;55.434;38.520;2022-09-13T06:37:38;6.62;;;4.12;;
47760;SDS011;33524;55.434;38.520;2022-09-13T06:40:06;7.40;;;4.28;;
47760;SDS011;33524;55.434;38.520;2022-09-13T06:42:34;6.62;;;4.57;;
47760;SDS011;33524;55.434;38.520;2022-09-13T06:45:03;7.05;;;4.18;;
47760;SDS011;33524;55.434;38.520;2022-09-13T06:47:32;6.50;;;4.12;;
47760;SDS011;33524;55.434;38.520;2022-09-13T06:50:00;5.50;;;3.47;;
47760;SDS011;33524;55.434;38.520;2022-09-13T06:52:29;6.95;;;4.65;;
47760;SDS011;33524;55.434;38.520;2022-09-13T06:54:56;5.78;;;3.22;;
47760;SDS011;33524;55.434;38.520;2022-09-13T06:57:25;7.80;;;3.65;;
47760;SDS011;33524;55.434;38.520;2022-09-13T06:59:56;6.60;;;3.05;;
47760;SDS011;33524;55.434;38.520;2022-09-13T07:02:24;7.57;;;3.80;;
47760;SDS011;33524;55.434;38.520;2022-09-13T07:04:52;5.85;;;3.28;;
47760;SDS011;33524;55.434;38.520;2022-09-13T07:07:20;4.72;;;3.00;;
47760;SDS011;33524;55.434;38.520;2022-09-13T07:09:48;6.57;;;3.50;;
47760;SDS011;33524;55.434;38.520;2022-09-13T07:12:16;4.78;;;3.50;;
47760;SDS011;33524;55.434;38.520;2022-09-13T07:14:46;7.43;;;3.90;;
47760;SDS011;33524;55.434;38.520;2022-09-13T07:17:14;7.30;;;3.12;;
47760;SDS011;33524;55.434;38.520;2022-09-13T07:19:42;5.07;;;3.00;;
47760;SDS011;33524;55.434;38.520;2022-09-13T07:22:10;4.97;;;3.10;;
47760;SDS011;33524;55.434;38.520;2022-09-13T07:24:38;7.35;;;3.85;;
47760;SDS011;33524;55.434;38.520;2022-09-13T07:27:06;4.03;;;2.92;;
47760;SDS011;33524;55.434;38.520;2022-09-13T07:29:34;7.07;;;3.00;;
47760;SDS011;33524;55.434;38.520;2022-09-13T07:32:02;4.03;;;2.35;;
47760;SDS011;33524;55.434;38.520;2022-09-13T07:34:30;3.55;;;2.50;;
47760;SDS011;33524;55.434;38.520;2022-09-13T07:36:58;5.15;;;2.47;;
47760;SDS011;33524;55.434;38.520;2022-09-13T07:39:25;4.18;;;2.42;;
47760;SDS011;33524;55.434;38.520;2022-09-13T07:41:53;3.37;;;2.42;;
47760;SDS011;33524;55.434;38.520;2022-09-13T07:44:21;2.87;;;1.90;;
47760;SDS011;33524;55.434;38.520;2022-09-13T07:46:49;3.22;;;1.98;;
47760;SDS011;33524;55.434;38.520;2022-09-13T07:49:17;3.03;;;2.00;;
47760;SDS011;33524;55.434;38.520;2022-09-13T07:51:46;3.42;;;2.20;;
47760;SDS011;33524;55.434;38.520;2022-09-13T07:54:17;3.05;;;1.65;;
47760;SDS011;33524;55.434;38.520;2022-09-13T07:56:47;2.83;;;1.60;;
47760;SDS011;33524;55.434;38.520;2022-09-13T07:59:16;3.03;;;1.80;;
47760;SDS011;33524;55.434;38.520;2022-09-13T08:01:49;3.12;;;1.35;;
47760;SDS011;33524;55.434;38.520;2022-09-13T08:04:19;2.20;;;1.52;;
47760;SDS011;33524;55.434;38.520;2022-09-13T08:06:50;1.98;;;1.42;;
47760;SDS011;33524;55.434;38.520;2022-09-13T08:09:18;1.87;;;1.58;;
47760;SDS011;33524;55.434;38.520;2022-09-13T08:11:48;3.42;;;1.60;;
47760;SDS011;33524;55.434;38.520;2022-09-13T08:16:49;3.50;;;1.87;;
47760;SDS011;33524;55.434;38.520;2022-09-13T08:19:17;2.42;;;1.67;;
47760;SDS011;33524;55.434;38.520;2022-09-13T08:21:46;2.55;;;1.70;;
47760;SDS011;33524;55.434;38.520;2022-09-13T08:24:18;3.20;;;2.05;;
47760;SDS011;33524;55.434;38.520;2022-09-13T08:27:07;4.87;;;2.20;;
47760;SDS011;33524;55.434;38.520;2022-09-13T08:29:35;3.53;;;1.70;;
47760;SDS011;33524;55.434;38.520;2022-09-13T08:32:03;3.17;;;1.98;;
47760;SDS011;33524;55.434;38.520;2022-09-13T08:34:31;3.33;;;1.80;;
47760;SDS011;33524;55.434;38.520;2022-09-13T08:36:59;2.70;;;1.90;;
47760;SDS011;33524;55.434;38.520;2022-09-13T08:39:30;2.55;;;1.60;;
47760;SDS011;33524;55.434;38.520;2022-09-13T08:42:10;2.37;;;1.80;;
47760;SDS011;33524;55.434;38.520;2022-09-13T08:44:44;4.60;;;1.75;;
47760;SDS011;33524;55.434;38.520;2022-09-13T08:47:27;3.08;;;2.25;;
47760;SDS011;33524;55.434;38.520;2022-09-13T08:50:11;2.97;;;1.60;;
47760;SDS011;33524;55.434;38.520;2022-09-13T08:58:34;3.75;;;1.92;;
47760;SDS011;33524;55.434;38.520;2022-09-13T09:04:08;3.20;;;2.25;;
47760;SDS011;33524;55.434;38.520;2022-09-13T09:07:02;2.65;;;1.80;;
47760;SDS011;33524;55.434;38.520;2022-09-13T09:09:39;2.95;;;2.10;;
47760;SDS011;33524;55.434;38.520;2022-09-13T09:14:56;3.37;;;1.65;;
47760;SDS011;33524;55.434;38.520;2022-09-13T09:23:18;2.00;;;1.70;;
47760;SDS011;33524;55.434;38.520;2022-09-13T09:25:54;2.65;;;1.50;;
47760;SDS011;33524;55.434;38.520;2022-09-13T09:28:24;4.65;;;1.60;;
47760;SDS011;33524;55.434;38.520;2022-09-13T09:31:02;3.67;;;1.73;;
47760;SDS011;33524;55.434;38.520;2022-09-13T09:36:31;3.58;;;1.52;;
47760;SDS011;33524;55.434;38.520;2022-09-13T09:39:12;1.85;;;1.40;;
47760;SDS011;33524;55.434;38.520;2022-09-13T09:41:43;2.67;;;1.52;;
47760;SDS011;33524;55.434;38.520;2022-09-13T09:44:18;1.87;;;1.37;;
47760;SDS011;33524;55.434;38.520;2022-09-13T09:46:55;4.35;;;1.95;;
47760;SDS011;33524;55.434;38.520;2022-09-13T09:49:36;2.72;;;2.15;;
47760;SDS011;33524;55.434;38.520;2022-09-13T09:52:30;1.60;;;1.40;;
47760;SDS011;33524;55.434;38.520;2022-09-13T09:55:10;2.20;;;1.30;;
47760;SDS011;33524;55.434;38.520;2022-09-13T10:00:18;2.50;;;1.60;;
47760;SDS011;33524;55.434;38.520;2022-09-13T10:02:47;1.50;;;1.30;;
47760;SDS011;33524;55.434;38.520;2022-09-13T10:05:18;3.25;;;1.40;;
47760;SDS011;33524;55.434;38.520;2022-09-13T10:07:53;1.50;;;1.27;;
47760;SDS011;33524;55.434;38.520;2022-09-13T10:10:32;2.75;;;1.40;;
47760;SDS011;33524;55.434;38.520;2022-09-13T10:13:03;2.55;;;1.50;;
47760;SDS011;33524;55.434;38.520;2022-09-13T10:15:34;1.52;;;1.42;;
47760;SDS011;33524;55.434;38.520;2022-09-13T10:18:04;1.83;;;1.30;;
47760;SDS011;33524;55.434;38.520;2022-09-13T10:21:04;4.10;;;1.40;;
47760;SDS011;33524;55.434;38.520;2022-09-13T10:23:44;3.05;;;1.50;;
47760;SDS011;33524;55.434;38.520;2022-09-13T10:26:21;4.57;;;1.70;;
47760;SDS011;33524;55.434;38.520;2022-09-13T10:31:29;3.50;;;1.40;;
47760;SDS011;33524;55.434;38.520;2022-09-13T10:36:31;1.75;;;1.20;;
47760;SDS011;33524;55.434;38.520;2022-09-13T10:39:18;4.28;;;1.60;;
47760;SDS011;33524;55.434;38.520;2022-09-13T10:41:50;2.10;;;1.40;;
47760;SDS011;33524;55.434;38.520;2022-09-13T10:47:16;1.65;;;1.30;;
47760;SDS011;33524;55.434;38.520;2022-09-13T10:49:57;4.30;;;1.80;;
47760;SDS011;33524;55.434;38.520;2022-09-13T10:52:37;1.42;;;1.33;;
47760;SDS011;33524;55.434;38.520;2022-09-13T10:57:41;2.05;;;1.50;;
47760;SDS011;33524;55.434;38.520;2022-09-13T11:00:10;1.90;;;1.58;;
47760;SDS011;33524;55.434;38.520;2022-09-13T11:14:37;4.43;;;1.80;;
47760;SDS011;33524;55.434;38.520;2022-09-13T11:23:10;2.80;;;1.42;;
47760;SDS011;33524;55.434;38.520;2022-09-13T11:26:10;4.85;;;2.28;;
47760;SDS011;33524;55.434;38.520;2022-09-13T11:32:10;1.67;;;1.40;;
47760;SDS011;33524;55.434;38.520;2022-09-13T11:34:48;3.20;;;1.73;;
47760;SDS011;33524;55.434;38.520;2022-09-13T11:40:20;3.78;;;1.60;;
47760;SDS011;33524;55.434;38.520;2022-09-13T11:45:41;2.40;;;1.48;;
47760;SDS011;33524;55.434;38.520;2022-09-13T11:59:20;2.25;;;1.77;;
47760;SDS011;33524;55.434;38.520;2022-09-13T12:01:55;3.85;;;1.70;;
47760;SDS011;33524;55.434;38.520;2022-09-13T12:04:28;2.37;;;1.50;;
47760;SDS011;33524;55.434;38.520;2022-09-13T12:07:03;1.85;;;1.40;;
47760;SDS011;33524;55.434;38.520;2022-09-13T12:09:37;2.42;;;1.60;;
47760;SDS011;33524;55.434;38.520;2022-09-13T12:12:11;3.60;;;1.50;;
47760;SDS011;33524;55.434;38.520;2022-09-13T12:14:42;4.45;;;1.50;;
47760;SDS011;33524;55.434;38.520;2022-09-13T12:17:41;5.10;;;2.05;;
47760;SDS011;33524;55.434;38.520;2022-09-13T12:22:59;2.03;;;1.52;;
47760;SDS011;33524;55.434;38.520;2022-09-13T12:28:38;2.47;;;1.77;;
47760;SDS011;33524;55.434;38.520;2022-09-13T12:31:32;4.45;;;1.83;;
47760;SDS011;33524;55.434;38.520;2022-09-13T12:34:04;2.42;;;1.50;;
47760;SDS011;33524;55.434;38.520;2022-09-13T12:45:12;4.70;;;2.30;;
47760;SDS011;33524;55.434;38.520;2022-09-13T12:54:19;4.65;;;1.75;;
47760;SDS011;33524;55.434;38.520;2022-09-13T12:57:16;6.53;;;2.47;;
47760;SDS011;33524;55.434;38.520;2022-09-13T13:00:10;4.12;;;1.70;;
47760;SDS011;33524;55.434;38.520;2022-09-13T13:08:04;3.95;;;2.10;;
47760;SDS011;33524;55.434;38.520;2022-09-13T13:13:37;3.90;;;2.30;;
47760;SDS011;33524;55.434;38.520;2022-09-13T13:19:03;4.85;;;1.95;;
47760;SDS011;33524;55.434;38.520;2022-09-13T13:21:52;5.37;;;2.05;;
47760;SDS011;33524;55.434;38.520;2022-09-13T13:29:38;4.57;;;1.77;;
47760;SDS011;33524;55.434;38.520;2022-09-13T13:32:09;2.80;;;1.60;;
47760;SDS011;33524;55.434;38.520;2022-09-13T13:34:42;2.75;;;2.45;;
47760;SDS011;33524;55.434;38.520;2022-09-13T13:39:44;4.18;;;1.77;;
47760;SDS011;33524;55.434;38.520;2022-09-13T13:44:56;3.12;;;1.65;;
47760;SDS011;33524;55.434;38.520;2022-09-13T13:52:33;1.92;;;1.30;;
47760;SDS011;33524;55.434;38.520;2022-09-13T13:55:27;1.62;;;1.45;;
47760;SDS011;33524;55.434;38.520;2022-09-13T13:58:11;2.60;;;1.80;;
47760;SDS011;33524;55.434;38.520;2022-09-13T14:00:52;3.75;;;1.60;;
47760;SDS011;33524;55.434;38.520;2022-09-13T14:06:05;2.60;;;1.50;;
47760;SDS011;33524;55.434;38.520;2022-09-13T14:11:35;4.72;;;2.17;;
47760;SDS011;33524;55.434;38.520;2022-09-13T14:19:49;3.85;;;1.98;;
47760;SDS011;33524;55.434;38.520;2022-09-13T14:22:25;3.03;;;1.90;;
47760;SDS011;33524;55.434;38.520;2022-09-13T14:24:56;2.58;;;1.70;;
47760;SDS011;33524;55.434;38.520;2022-09-13T14:27:39;7.05;;;2.12;;
47760;SDS011;33524;55.434;38.520;2022-09-13T14:30:32;3.90;;;1.87;;
47760;SDS011;33524;55.434;38.520;2022-09-13T14:33:01;3.85;;;1.87;;
47760;SDS011;33524;55.434;38.520;2022-09-13T14:40:37;6.80;;;2.12;;
47760;SDS011;33524;55.434;38.520;2022-09-13T14:43:15;2.78;;;1.80;;
47760;SDS011;33524;55.434;38.520;2022-09-13T14:45:49;2.47;;;1.93;;
47760;SDS011;33524;55.434;38.520;2022-09-13T14:48:26;4.30;;;2.08;;
47760;SDS011;33524;55.434;38.520;2022-09-13T14:50:59;3.20;;;1.85;;
47760;SDS011;33524;55.434;38.520;2022-09-13T14:53:35;3.95;;;2.00;;
47760;SDS011;33524;55.434;38.520;2022-09-13T14:56:07;2.53;;;1.85;;
47760;SDS011;33524;55.434;38.520;2022-09-13T14:58:48;3.33;;;2.28;;
47760;SDS011;33524;55.434;38.520;2022-09-13T15:01:39;2.40;;;1.90;;
47760;SDS011;33524;55.434;38.520;2022-09-13T15:04:06;3.05;;;1.92;;
47760;SDS011;33524;55.434;38.520;2022-09-13T15:06:36;2.33;;;1.87;;
47760;SDS011;33524;55.434;38.520;2022-09-13T15:11:38;3.33;;;2.42;;
47760;SDS011;33524;55.434;38.520;2022-09-13T15:19:40;6.65;;;2.65;;
47760;SDS011;33524;55.434;38.520;2022-09-13T15:22:13;4.47;;;2.00;;
47760;SDS011;33524;55.434;38.520;2022-09-13T15:24:46;3.30;;;2.10;;
47760;SDS011;33524;55.434;38.520;2022-09-13T15:29:59;6.78;;;2.53;;
47760;SDS011;33524;55.434;38.520;2022-09-13T15:32:38;3.78;;;2.28;;
47760;SDS011;33524;55.434;38.520;2022-09-13T15:35:21;4.25;;;2.83;;
47760;SDS011;33524;55.434;38.520;2022-09-13T15:37:59;4.03;;;2.58;;
47760;SDS011;33524;55.434;38.520;2022-09-13T15:40:29;5.68;;;3.20;;
47760;SDS011;33524;55.434;38.520;2022-09-13T15:43:07;4.72;;;2.72;;
47760;SDS011;33524;55.434;38.520;2022-09-13T15:45:35;4.30;;;2.97;;
47760;SDS011;33524;55.434;38.520;2022-09-13T15:48:03;5.62;;;3.30;;
47760;SDS011;33524;55.434;38.520;2022-09-13T15:50:34;4.72;;;3.40;;
47760;SDS011;33524;55.434;38.520;2022-09-13T15:53:04;3.92;;;2.60;;
47760;SDS011;33524;55.434;38.520;2022-09-13T15:55:37;4.62;;;3.10;;
47760;SDS011;33524;55.434;38.520;2022-09-13T15:58:07;3.70;;;2.40;;
47760;SDS011;33524;55.434;38.520;2022-09-13T16:00:36;3.50;;;2.60;;
47760;SDS011;33524;55.434;38.520;2022-09-13T16:03:04;5.32;;;2.50;;
47760;SDS011;33524;55.434;38.520;2022-09-13T16:05:32;3.92;;;2.70;;
47760;SDS011;33524;55.434;38.520;2022-09-13T16:08:02;4.68;;;2.35;;
47760;SDS011;33524;55.434;38.520;2022-09-13T16:10:32;4.50;;;2.80;;
47760;SDS011;33524;55.434;38.520;2022-09-13T16:13:00;4.40;;;2.78;;
47760;SDS011;33524;55.434;38.520;2022-09-13T16:15:28;5.10;;;2.67;;
47760;SDS011;33524;55.434;38.520;2022-09-13T16:17:56;4.72;;;2.80;;
47760;SDS011;33524;55.434;38.520;2022-09-13T16:20:24;6.12;;;2.80;;
47760;SDS011;33524;55.434;38.520;2022-09-13T16:22:53;3.70;;;2.53;;
47760;SDS011;33524;55.434;38.520;2022-09-13T16:25:21;3.83;;;2.92;;
47760;SDS011;33524;55.434;38.520;2022-09-13T16:27:50;2.65;;;1.95;;
47760;SDS011;33524;55.434;38.520;2022-09-13T16:30:20;4.75;;;2.78;;
47760;SDS011;33524;55.434;38.520;2022-09-13T16:32:48;4.18;;;3.17;;
47760;SDS011;33524;55.434;38.520;2022-09-13T16:35:16;4.65;;;2.70;;
47760;SDS011;33524;55.434;38.520;2022-09-13T16:37:44;4.03;;;2.45;;
47760;SDS011;33524;55.434;38.520;2022-09-13T16:40:17;4.53;;;2.72;;
47760;SDS011;33524;55.434;38.520;2022-09-13T16:42:46;4.72;;;2.50;;
47760;SDS011;33524;55.434;38.520;2022-09-13T16:45:14;3.92;;;2.58;;
47760;SDS011;33524;55.434;38.520;2022-09-13T16:47:42;5.22;;;2.90;;
47760;SDS011;33524;55.434;38.520;2022-09-13T16:50:10;7.22;;;3.20;;
47760;SDS011;33524;55.434;38.520;2022-09-13T16:52:38;3.67;;;2.40;;
47760;SDS011;33524;55.434;38.520;2022-09-13T16:55:06;6.65;;;3.50;;
47760;SDS011;33524;55.434;38.520;2022-09-13T16:57:36;5.40;;;2.72;;
47760;SDS011;33524;55.434;38.520;2022-09-13T17:00:04;4.03;;;3.15;;
47760;SDS011;33524;55.434;38.520;2022-09-13T17:02:37;3.80;;;3.20;;
47760;SDS011;33524;55.434;38.520;2022-09-13T17:05:05;4.28;;;2.85;;
47760;SDS011;33524;55.434;38.520;2022-09-13T17:07:34;4.25;;;2.80;;
47760;SDS011;33524;55.434;38.520;2022-09-13T17:10:04;6.32;;;2.85;;
47760;SDS011;33524;55.434;38.520;2022-09-13T17:12:33;5.40;;;3.33;;
47760;SDS011;33524;55.434;38.520;2022-09-13T17:15:01;8.43;;;4.28;;
47760;SDS011;33524;55.434;38.520;2022-09-13T17:17:29;6.40;;;4.25;;
47760;SDS011;33524;55.434;38.520;2022-09-13T17:20:03;5.55;;;3.78;;
47760;SDS011;33524;55.434;38.520;2022-09-13T17:22:36;5.45;;;3.75;;
47760;SDS011;33524;55.434;38.520;2022-09-13T17:25:05;5.90;;;3.58;;
47760;SDS011;33524;55.434;38.520;2022-09-13T17:27:34;5.62;;;3.35;;
47760;SDS011;33524;55.434;38.520;2022-09-13T17:30:03;4.80;;;3.55;;
47760;SDS011;33524;55.434;38.520;2022-09-13T17:32:48;6.65;;;4.22;;
47760;SDS011;33524;55.434;38.520;2022-09-13T17:35:16;6.70;;;3.83;;
47760;SDS011;33524;55.434;38.520;2022-09-13T17:37:44;7.97;;;6.35;;
47760;SDS011;33524;55.434;38.520;2022-09-13T17:40:12;7.18;;;4.60;;
47760;SDS011;33524;55.434;38.520;2022-09-13T17:42:40;4.57;;;3.42;;
47760;SDS011;33524;55.434;38.520;2022-09-13T17:45:25;5.15;;;3.47;;
47760;SDS011;33524;55.434;38.520;2022-09-13T17:47:54;4.22;;;3.28;;
47760;SDS011;33524;55.434;38.520;2022-09-13T17:50:23;4.57;;;3.80;;
47760;SDS011;33524;55.434;38.520;2022-09-13T17:52:51;5.35;;;3.70;;
47760;SDS011;33524;55.434;38.520;2022-09-13T17:55:19;5.68;;;3.33;;
47760;SDS011;33524;55.434;38.520;2022-09-13T17:57:47;7.43;;;3.53;;
47760;SDS011;33524;55.434;38.520;2022-09-13T18:00:16;4.03;;;3.55;;
47760;SDS011;33524;55.434;38.520;2022-09-13T18:02:46;6.12;;;3.97;;
47760;SDS011;33524;55.434;38.520;2022-09-13T18:05:14;5.18;;;3.35;;
47760;SDS011;33524;55.434;38.520;2022-09-13T18:07:42;4.00;;;3.30;;
47760;SDS011;33524;55.434;38.520;2022-09-13T18:10:10;5.15;;;3.45;;
47760;SDS011;33524;55.434;38.520;2022-09-13T18:12:58;4.65;;;3.50;;
47760;SDS011;33524;55.434;38.520;2022-09-13T18:15:26;4.53;;;3.60;;
47760;SDS011;33524;55.434;38.520;2022-09-13T18:17:54;6.37;;;3.75;;
47760;SDS011;33524;55.434;38.520;2022-09-13T18:20:22;6.45;;;3.30;;
47760;SDS011;33524;55.434;38.520;2022-09-13T18:22:50;4.22;;;3.22;;
47760;SDS011;33524;55.434;38.520;2022-09-13T18:25:18;5.18;;;3.65;;
47760;SDS011;33524;55.434;38.520;2022-09-13T18:27:50;5.65;;;3.72;;
47760;SDS011;33524;55.434;38.520;2022-09-13T18:30:17;4.60;;;3.35;;
47760;SDS011;33524;55.434;38.520;2022-09-13T18:32:45;5.03;;;3.65;;
47760;SDS011;33524;55.434;38.520;2022-09-13T18:35:14;5.50;;;3.20;;